sensor_id;sensor_type;location;lat;lon;timestamp;temperature;humidity
15184;DHT22;7693;49.266;7.104;2023-09-07T05:13:27;15.80;99.90
15184;DHT22;7693;49.266;7.104;2023-09-07T05:15:54;15.80;99.90
15184;DHT22;7693;49.266;7.104;2023-09-07T05:18:25;15.80;99.90
15184;DHT22;7693;49.266;7.104;2023-09-07T05:20:51;15.90;99.90
15184;DHT22;7693;49.266;7.104;2023-09-07T05:25:46;16.10;99.90
15184;DHT22;7693;49.266;7.104;2023-09-07T05:28:15;16.10;99.90
15184;DHT22;7693;49.266;7.104;2023-09-07T05:30:41;16.20;99.90
15184;DHT22;7693;49.266;7.104;2023-09-07T05:33:09;16.20;99.90
15184;DHT22;7693;49.266;7.104;2023-09-07T05:35:34;16.20;99.90
15184;DHT22;7693;49.266;7.104;2023-09-07T05:38:00;16.20;99.90
15184;DHT22;7693;49.266;7.104;2023-09-07T05:40:26;16.20;99.90
15184;DHT22;7693;49.266;7.104;2023-09-07T05:42:52;16.20;99.90
15184;DHT22;7693;49.266;7.104;2023-09-07T05:45:17;16.20;99.90
15184;DHT22;7693;49.266;7.104;2023-09-07T05:47:43;16.20;99.90
15184;DHT22;7693;49.266;7.104;2023-09-07T05:50:08;16.30;99.90
15184;DHT22;7693;49.266;7.104;2023-09-07T05:52:34;16.30;99.90
15184;DHT22;7693;49.266;7.104;2023-09-07T05:55:00;16.40;99.90
15184;DHT22;7693;49.266;7.104;2023-09-07T05:57:25;16.60;99.90
15184;DHT22;7693;49.266;7.104;2023-09-07T05:59:51;16.70;99.90
15184;DHT22;7693;49.266;7.104;2023-09-07T06:02:16;16.80;99.90
15184;DHT22;7693;49.266;7.104;2023-09-07T06:04:42;16.90;99.90
15184;DHT22;7693;49.266;7.104;2023-09-07T06:07:07;16.90;99.90
15184;DHT22;7693;49.266;7.104;2023-09-07T06:09:33;17.00;99.90
15184;DHT22;7693;49.266;7.104;2023-09-07T06:11:58;17.10;99.90
15184;DHT22;7693;49.266;7.104;2023-09-07T06:14:24;17.20;99.90
15184;DHT22;7693;49.266;7.104;2023-09-07T06:16:50;17.30;99.90
15184;DHT22;7693;49.266;7.104;2023-09-07T06:19:15;17.40;99.90
15184;DHT22;7693;49.266;7.104;2023-09-07T06:21:41;17.40;99.90
15184;DHT22;7693;49.266;7.104;2023-09-07T06:24:08;17.50;99.90
15184;DHT22;7693;49.266;7.104;2023-09-07T06:26:34;17.50;99.90
15184;DHT22;7693;49.266;7.104;2023-09-07T06:28:59;17.60;99.90
15184;DHT22;7693;49.266;7.104;2023-09-07T06:31:25;17.70;99.90
15184;DHT22;7693;49.266;7.104;2023-09-07T06:33:51;17.70;99.90
15184;DHT22;7693;49.266;7.104;2023-09-07T06:36:16;17.80;99.90
15184;DHT22;7693;49.266;7.104;2023-09-07T06:38:42;17.80;99.90
15184;DHT22;7693;49.266;7.104;2023-09-07T06:41:07;17.90;99.90
15184;DHT22;7693;49.266;7.104;2023-09-07T06:43:34;18.00;99.90
15184;DHT22;7693;49.266;7.104;2023-09-07T06:46:07;18.10;99.90
15184;DHT22;7693;49.266;7.104;2023-09-07T06:48:33;18.10;99.90
15184;DHT22;7693;49.266;7.104;2023-09-07T06:51:06;18.20;99.90
15184;DHT22;7693;49.266;7.104;2023-09-07T06:53:31;18.30;99.90
15184;DHT22;7693;49.266;7.104;2023-09-07T06:55:58;18.40;99.90
15184;DHT22;7693;49.266;7.104;2023-09-07T06:58:24;18.40;99.90
15184;DHT22;7693;49.266;7.104;2023-09-07T07:00:50;18.50;99.90
15184;DHT22;7693;49.266;7.104;2023-09-07T07:03:15;18.60;99.90
15184;DHT22;7693;49.266;7.104;2023-09-07T07:05:41;18.60;99.90
15184;DHT22;7693;49.266;7.104;2023-09-07T07:08:07;18.70;99.90
15184;DHT22;7693;49.266;7.104;2023-09-07T07:10:33;18.80;99.90
15184;DHT22;7693;49.266;7.104;2023-09-07T07:12:58;18.90;99.90
15184;DHT22;7693;49.266;7.104;2023-09-07T07:15:25;19.00;99.90
15184;DHT22;7693;49.266;7.104;2023-09-07T07:17:51;19.00;99.90
15184;DHT22;7693;49.266;7.104;2023-09-07T07:20:16;19.00;99.90
15184;DHT22;7693;49.266;7.104;2023-09-07T07:22:42;19.10;99.90
15184;DHT22;7693;49.266;7.104;2023-09-07T07:25:08;19.20;99.90
15184;DHT22;7693;49.266;7.104;2023-09-07T07:27:33;19.30;99.90
15184;DHT22;7693;49.266;7.104;2023-09-07T07:29:59;19.30;99.90
15184;DHT22;7693;49.266;7.104;2023-09-07T07:32:24;19.40;99.90
15184;DHT22;7693;49.266;7.104;2023-09-07T07:34:50;19.50;99.90
15184;DHT22;7693;49.266;7.104;2023-09-07T07:37:16;19.60;99.90
15184;DHT22;7693;49.266;7.104;2023-09-07T07:39:41;19.60;99.90
15184;DHT22;7693;49.266;7.104;2023-09-07T07:42:07;19.70;99.90
15184;DHT22;7693;49.266;7.104;2023-09-07T07:44:32;19.80;99.90
15184;DHT22;7693;49.266;7.104;2023-09-07T07:46:58;19.90;99.90
15184;DHT22;7693;49.266;7.104;2023-09-07T07:49:24;20.00;99.90
15184;DHT22;7693;49.266;7.104;2023-09-07T07:51:50;20.20;99.90
15184;DHT22;7693;49.266;7.104;2023-09-07T07:54:16;20.20;99.90
15184;DHT22;7693;49.266;7.104;2023-09-07T07:56:42;20.30;99.90
15184;DHT22;7693;49.266;7.104;2023-09-07T07:59:07;20.40;99.90
15184;DHT22;7693;49.266;7.104;2023-09-07T08:01:33;20.40;99.90
15184;DHT22;7693;49.266;7.104;2023-09-07T08:03:59;20.50;99.90
15184;DHT22;7693;49.266;7.104;2023-09-07T08:06:24;20.60;99.90
15184;DHT22;7693;49.266;7.104;2023-09-07T08:08:50;20.70;99.90
15184;DHT22;7693;49.266;7.104;2023-09-07T08:11:15;20.70;99.90
15184;DHT22;7693;49.266;7.104;2023-09-07T08:13:42;20.80;99.90
15184;DHT22;7693;49.266;7.104;2023-09-07T08:16:10;20.90;99.90
15184;DHT22;7693;49.266;7.104;2023-09-07T08:18:36;21.00;99.90
15184;DHT22;7693;49.266;7.104;2023-09-07T08:21:01;21.00;99.90
15184;DHT22;7693;49.266;7.104;2023-09-07T08:23:27;21.10;99.90
15184;DHT22;7693;49.266;7.104;2023-09-07T08:25:53;21.20;99.90
15184;DHT22;7693;49.266;7.104;2023-09-07T08:28:19;21.30;99.90
15184;DHT22;7693;49.266;7.104;2023-09-07T08:30:49;21.40;99.90
15184;DHT22;7693;49.266;7.104;2023-09-07T08:33:16;21.50;99.90
15184;DHT22;7693;49.266;7.104;2023-09-07T08:35:42;21.60;99.90
15184;DHT22;7693;49.266;7.104;2023-09-07T08:38:10;21.70;99.90
15184;DHT22;7693;49.266;7.104;2023-09-07T08:40:37;21.80;99.90
15184;DHT22;7693;49.266;7.104;2023-09-07T08:43:05;21.90;99.90
15184;DHT22;7693;49.266;7.104;2023-09-07T08:45:39;22.00;99.90
15184;DHT22;7693;49.266;7.104;2023-09-07T08:48:08;22.10;99.90
15184;DHT22;7693;49.266;7.104;2023-09-07T08:50:35;22.10;99.90
15184;DHT22;7693;49.266;7.104;2023-09-07T08:53:03;22.20;99.90
15184;DHT22;7693;49.266;7.104;2023-09-07T08:55:29;22.20;99.90
15184;DHT22;7693;49.266;7.104;2023-09-07T08:57:56;22.30;99.90
15184;DHT22;7693;49.266;7.104;2023-09-07T09:00:22;22.40;99.90
15184;DHT22;7693;49.266;7.104;2023-09-07T09:02:49;22.40;99.90
15184;DHT22;7693;49.266;7.104;2023-09-07T09:05:15;22.50;99.90
15184;DHT22;7693;49.266;7.104;2023-09-07T09:07:43;22.60;99.90
15184;DHT22;7693;49.266;7.104;2023-09-07T09:10:09;22.70;99.90
15184;DHT22;7693;49.266;7.104;2023-09-07T09:12:35;22.80;99.90
15184;DHT22;7693;49.266;7.104;2023-09-07T09:15:01;22.80;99.90
15184;DHT22;7693;49.266;7.104;2023-09-07T09:17:29;22.90;99.90
15184;DHT22;7693;49.266;7.104;2023-09-07T09:19:55;22.90;99.90
15184;DHT22;7693;49.266;7.104;2023-09-07T09:22:21;23.00;99.90
15184;DHT22;7693;49.266;7.104;2023-09-07T09:24:50;23.10;99.90
15184;DHT22;7693;49.266;7.104;2023-09-07T09:27:16;23.20;99.90
15184;DHT22;7693;49.266;7.104;2023-09-07T09:29:42;23.30;99.90
15184;DHT22;7693;49.266;7.104;2023-09-07T09:32:08;23.40;99.90
15184;DHT22;7693;49.266;7.104;2023-09-07T09:34:35;23.40;99.90
15184;DHT22;7693;49.266;7.104;2023-09-07T09:37:02;23.50;99.90
15184;DHT22;7693;49.266;7.104;2023-09-07T09:39:29;23.50;99.90
15184;DHT22;7693;49.266;7.104;2023-09-07T09:41:55;23.60;99.90
15184;DHT22;7693;49.266;7.104;2023-09-07T09:44:23;23.60;99.90
15184;DHT22;7693;49.266;7.104;2023-09-07T09:46:54;23.70;99.90
15184;DHT22;7693;49.266;7.104;2023-09-07T09:49:21;23.70;99.90
15184;DHT22;7693;49.266;7.104;2023-09-07T09:51:51;23.90;99.90
15184;DHT22;7693;49.266;7.104;2023-09-07T09:54:17;24.00;99.90
15184;DHT22;7693;49.266;7.104;2023-09-07T09:56:43;24.00;99.90
15184;DHT22;7693;49.266;7.104;2023-09-07T13:18:25;28.20;98.40
15184;DHT22;7693;49.266;7.104;2023-09-07T13:20:51;28.30;98.40
15184;DHT22;7693;49.266;7.104;2023-09-07T13:23:28;28.30;98.30
15184;DHT22;7693;49.266;7.104;2023-09-07T13:25:57;28.30;98.10
15184;DHT22;7693;49.266;7.104;2023-09-07T13:28:23;28.40;98.10
15184;DHT22;7693;49.266;7.104;2023-09-07T13:30:50;28.40;97.80
15184;DHT22;7693;49.266;7.104;2023-09-07T13:33:16;28.40;97.80
15184;DHT22;7693;49.266;7.104;2023-09-07T13:35:42;28.30;97.80
15184;DHT22;7693;49.266;7.104;2023-09-07T13:38:07;28.40;97.70
15184;DHT22;7693;49.266;7.104;2023-09-07T13:40:33;28.50;97.70
15184;DHT22;7693;49.266;7.104;2023-09-07T13:42:58;28.60;97.50
15184;DHT22;7693;49.266;7.104;2023-09-07T13:45:24;28.60;97.10
15184;DHT22;7693;49.266;7.104;2023-09-07T13:47:50;28.60;97.00
15184;DHT22;7693;49.266;7.104;2023-09-07T13:50:16;28.60;97.10
15184;DHT22;7693;49.266;7.104;2023-09-07T13:52:41;28.70;97.10
15184;DHT22;7693;49.266;7.104;2023-09-07T13:55:07;28.70;97.00
15184;DHT22;7693;49.266;7.104;2023-09-07T13:57:33;28.80;96.90
15184;DHT22;7693;49.266;7.104;2023-09-07T14:00:00;28.80;96.80
15184;DHT22;7693;49.266;7.104;2023-09-07T14:02:26;28.90;96.60
15184;DHT22;7693;49.266;7.104;2023-09-07T14:04:51;28.90;96.30
15184;DHT22;7693;49.266;7.104;2023-09-07T14:07:17;28.80;96.30
15184;DHT22;7693;49.266;7.104;2023-09-07T14:09:43;28.90;96.40
15184;DHT22;7693;49.266;7.104;2023-09-07T14:12:09;28.90;96.30
15184;DHT22;7693;49.266;7.104;2023-09-07T14:14:35;28.90;95.80
15184;DHT22;7693;49.266;7.104;2023-09-07T14:17:01;28.80;95.70
15184;DHT22;7693;49.266;7.104;2023-09-07T14:19:27;28.80;95.80
15184;DHT22;7693;49.266;7.104;2023-09-07T14:21:59;28.80;95.90
15184;DHT22;7693;49.266;7.104;2023-09-07T14:24:25;28.80;95.90
15184;DHT22;7693;49.266;7.104;2023-09-07T14:26:51;28.80;95.80
15184;DHT22;7693;49.266;7.104;2023-09-07T14:29:16;28.90;95.80
15184;DHT22;7693;49.266;7.104;2023-09-07T14:31:42;28.90;95.70
15184;DHT22;7693;49.266;7.104;2023-09-07T14:34:09;29.00;95.80
15184;DHT22;7693;49.266;7.104;2023-09-07T14:36:36;29.10;95.70
15184;DHT22;7693;49.266;7.104;2023-09-07T14:39:02;29.20;95.60
15184;DHT22;7693;49.266;7.104;2023-09-07T14:41:28;29.30;95.40
15184;DHT22;7693;49.266;7.104;2023-09-07T14:43:55;29.40;95.20
15184;DHT22;7693;49.266;7.104;2023-09-07T14:46:21;29.40;95.10
15184;DHT22;7693;49.266;7.104;2023-09-07T14:48:48;29.50;95.20
15184;DHT22;7693;49.266;7.104;2023-09-07T14:51:14;29.60;95.50
15184;DHT22;7693;49.266;7.104;2023-09-07T14:53:40;29.70;95.50
15184;DHT22;7693;49.266;7.104;2023-09-07T14:56:06;29.90;95.50
15184;DHT22;7693;49.266;7.104;2023-09-07T14:58:32;30.00;95.40
15184;DHT22;7693;49.266;7.104;2023-09-07T15:00:57;30.10;95.40
15184;DHT22;7693;49.266;7.104;2023-09-07T15:03:23;30.20;95.20
15184;DHT22;7693;49.266;7.104;2023-09-07T15:05:49;30.20;95.00
15184;DHT22;7693;49.266;7.104;2023-09-07T15:08:15;30.20;95.10
15184;DHT22;7693;49.266;7.104;2023-09-07T15:10:41;30.30;95.10
15184;DHT22;7693;49.266;7.104;2023-09-07T15:13:06;30.20;95.00
15184;DHT22;7693;49.266;7.104;2023-09-07T15:15:33;30.10;94.60
15184;DHT22;7693;49.266;7.104;2023-09-07T15:18:02;29.80;94.30
15184;DHT22;7693;49.266;7.104;2023-09-07T15:20:29;29.50;94.10
15184;DHT22;7693;49.266;7.104;2023-09-07T15:22:54;29.30;93.90
15184;DHT22;7693;49.266;7.104;2023-09-07T15:25:20;29.10;93.90
15184;DHT22;7693;49.266;7.104;2023-09-07T15:27:46;29.00;94.20
15184;DHT22;7693;49.266;7.104;2023-09-07T15:30:13;28.90;94.20
15184;DHT22;7693;49.266;7.104;2023-09-07T15:32:39;28.80;93.90
15184;DHT22;7693;49.266;7.104;2023-09-07T15:35:08;28.70;94.00
15184;DHT22;7693;49.266;7.104;2023-09-07T15:37:34;28.60;93.90
15184;DHT22;7693;49.266;7.104;2023-09-07T15:40:00;28.50;94.10
15184;DHT22;7693;49.266;7.104;2023-09-07T15:42:25;28.40;94.00
15184;DHT22;7693;49.266;7.104;2023-09-07T15:44:51;28.40;94.20
15184;DHT22;7693;49.266;7.104;2023-09-07T15:47:17;28.30;94.10
15184;DHT22;7693;49.266;7.104;2023-09-07T15:49:43;28.20;94.00
15184;DHT22;7693;49.266;7.104;2023-09-07T15:52:11;28.10;94.00
15184;DHT22;7693;49.266;7.104;2023-09-07T15:54:37;28.10;94.10
15184;DHT22;7693;49.266;7.104;2023-09-07T15:57:03;28.10;94.10
15184;DHT22;7693;49.266;7.104;2023-09-07T15:59:29;28.00;93.90
15184;DHT22;7693;49.266;7.104;2023-09-07T16:01:55;28.00;93.80
15184;DHT22;7693;49.266;7.104;2023-09-07T16:04:22;28.00;93.80
15184;DHT22;7693;49.266;7.104;2023-09-07T16:06:48;28.00;94.00
15184;DHT22;7693;49.266;7.104;2023-09-07T16:09:14;28.00;94.30
15184;DHT22;7693;49.266;7.104;2023-09-07T16:11:40;28.00;94.70
15184;DHT22;7693;49.266;7.104;2023-09-07T16:14:06;28.10;94.30
15184;DHT22;7693;49.266;7.104;2023-09-07T16:16:32;28.10;94.10
15184;DHT22;7693;49.266;7.104;2023-09-07T16:18:59;28.10;94.00
15184;DHT22;7693;49.266;7.104;2023-09-07T16:21:24;28.10;94.40
15184;DHT22;7693;49.266;7.104;2023-09-07T16:23:50;28.30;95.50
15184;DHT22;7693;49.266;7.104;2023-09-07T16:26:16;28.30;94.70
15184;DHT22;7693;49.266;7.104;2023-09-07T16:28:41;28.20;94.00
15184;DHT22;7693;49.266;7.104;2023-09-07T16:31:07;28.10;93.70
15184;DHT22;7693;49.266;7.104;2023-09-07T16:33:33;27.90;93.60
15184;DHT22;7693;49.266;7.104;2023-09-07T16:35:58;27.70;93.60
15184;DHT22;7693;49.266;7.104;2023-09-07T16:38:25;27.70;93.70
15184;DHT22;7693;49.266;7.104;2023-09-07T16:40:51;27.60;93.60
15184;DHT22;7693;49.266;7.104;2023-09-07T16:43:17;27.50;93.70
15184;DHT22;7693;49.266;7.104;2023-09-07T16:45:42;27.40;93.70
15184;DHT22;7693;49.266;7.104;2023-09-07T16:48:08;27.30;93.80
15184;DHT22;7693;49.266;7.104;2023-09-07T16:50:33;27.30;94.00
15184;DHT22;7693;49.266;7.104;2023-09-07T16:52:59;27.40;94.30
15184;DHT22;7693;49.266;7.104;2023-09-07T16:55:24;27.40;94.10
15184;DHT22;7693;49.266;7.104;2023-09-07T16:57:50;27.30;93.80
15184;DHT22;7693;49.266;7.104;2023-09-07T17:00:16;27.20;93.70
15184;DHT22;7693;49.266;7.104;2023-09-07T17:02:41;27.00;93.70
15184;DHT22;7693;49.266;7.104;2023-09-07T17:05:07;27.00;93.70
15184;DHT22;7693;49.266;7.104;2023-09-07T17:07:36;26.90;93.70
15184;DHT22;7693;49.266;7.104;2023-09-07T17:10:02;26.80;93.70
15184;DHT22;7693;49.266;7.104;2023-09-07T17:12:28;26.70;93.80
15184;DHT22;7693;49.266;7.104;2023-09-07T17:14:53;26.60;93.80
15184;DHT22;7693;49.266;7.104;2023-09-07T17:17:19;26.60;93.90
15184;DHT22;7693;49.266;7.104;2023-09-07T17:19:44;26.50;93.80
15184;DHT22;7693;49.266;7.104;2023-09-07T17:22:10;26.40;93.90
15184;DHT22;7693;49.266;7.104;2023-09-07T17:24:37;26.40;94.00
15184;DHT22;7693;49.266;7.104;2023-09-07T17:27:03;26.30;93.90
15184;DHT22;7693;49.266;7.104;2023-09-07T17:29:28;26.20;93.90
15184;DHT22;7693;49.266;7.104;2023-09-07T17:31:54;26.10;94.00
15184;DHT22;7693;49.266;7.104;2023-09-07T17:34:23;26.10;94.10
15184;DHT22;7693;49.266;7.104;2023-09-07T17:36:48;26.00;93.90
15184;DHT22;7693;49.266;7.104;2023-09-07T17:39:14;25.90;94.00
15184;DHT22;7693;49.266;7.104;2023-09-07T17:41:39;25.80;94.50
15184;DHT22;7693;49.266;7.104;2023-09-07T17:44:06;25.80;94.20
15184;DHT22;7693;49.266;7.104;2023-09-07T17:46:31;25.70;94.20
15184;DHT22;7693;49.266;7.104;2023-09-07T17:48:57;25.70;94.20
15184;DHT22;7693;49.266;7.104;2023-09-07T17:51:23;25.60;94.20
15184;DHT22;7693;49.266;7.104;2023-09-07T17:53:48;25.60;94.30
15184;DHT22;7693;49.266;7.104;2023-09-07T17:56:14;25.50;94.30
15184;DHT22;7693;49.266;7.104;2023-09-07T17:58:41;25.50;94.40
15184;DHT22;7693;49.266;7.104;2023-09-07T18:01:12;25.40;94.40
15184;DHT22;7693;49.266;7.104;2023-09-07T18:03:38;25.30;94.40
15184;DHT22;7693;49.266;7.104;2023-09-07T18:06:04;25.20;94.40
15184;DHT22;7693;49.266;7.104;2023-09-07T18:08:30;25.20;94.50
15184;DHT22;7693;49.266;7.104;2023-09-07T18:10:56;25.10;94.50
15184;DHT22;7693;49.266;7.104;2023-09-07T18:13:21;25.10;94.90
15184;DHT22;7693;49.266;7.104;2023-09-07T18:15:47;25.00;94.60
15184;DHT22;7693;49.266;7.104;2023-09-07T18:18:13;25.00;94.60
15184;DHT22;7693;49.266;7.104;2023-09-07T18:20:40;24.90;94.70
15184;DHT22;7693;49.266;7.104;2023-09-07T18:23:05;24.90;94.80
15184;DHT22;7693;49.266;7.104;2023-09-07T18:25:37;24.90;94.80
15184;DHT22;7693;49.266;7.104;2023-09-07T18:28:04;24.70;94.80
15184;DHT22;7693;49.266;7.104;2023-09-07T18:30:34;24.60;94.90
15184;DHT22;7693;49.266;7.104;2023-09-07T18:33:00;24.60;95.00
15184;DHT22;7693;49.266;7.104;2023-09-07T18:35:28;24.50;95.10
15184;DHT22;7693;49.266;7.104;2023-09-07T18:37:58;24.40;95.20
15184;DHT22;7693;49.266;7.104;2023-09-07T18:40:24;24.30;95.30
15184;DHT22;7693;49.266;7.104;2023-09-07T18:42:50;24.20;95.40
15184;DHT22;7693;49.266;7.104;2023-09-07T18:45:17;24.10;95.50
15184;DHT22;7693;49.266;7.104;2023-09-07T18:47:43;23.90;95.60
15184;DHT22;7693;49.266;7.104;2023-09-07T18:50:09;23.80;95.70
15184;DHT22;7693;49.266;7.104;2023-09-07T18:52:35;23.80;95.80
15184;DHT22;7693;49.266;7.104;2023-09-07T18:55:04;23.60;95.90
15184;DHT22;7693;49.266;7.104;2023-09-07T18:57:30;23.60;96.00
15184;DHT22;7693;49.266;7.104;2023-09-07T18:59:56;23.50;96.20
15184;DHT22;7693;49.266;7.104;2023-09-07T19:02:22;23.40;96.30
15184;DHT22;7693;49.266;7.104;2023-09-07T19:04:48;23.30;96.40
15184;DHT22;7693;49.266;7.104;2023-09-07T19:07:15;23.20;96.50
15184;DHT22;7693;49.266;7.104;2023-09-07T19:09:45;23.10;96.60
15184;DHT22;7693;49.266;7.104;2023-09-07T19:12:12;23.00;96.90
15184;DHT22;7693;49.266;7.104;2023-09-07T19:14:38;22.90;97.00
15184;DHT22;7693;49.266;7.104;2023-09-07T19:17:04;22.90;97.20
15184;DHT22;7693;49.266;7.104;2023-09-07T19:19:29;22.80;97.20
15184;DHT22;7693;49.266;7.104;2023-09-07T19:21:55;22.80;97.40
15184;DHT22;7693;49.266;7.104;2023-09-07T19:24:20;22.70;97.50
15184;DHT22;7693;49.266;7.104;2023-09-07T19:26:46;22.60;97.60
15184;DHT22;7693;49.266;7.104;2023-09-07T19:29:14;22.60;97.70
15184;DHT22;7693;49.266;7.104;2023-09-07T19:31:39;22.50;97.80
15184;DHT22;7693;49.266;7.104;2023-09-07T19:34:06;22.50;97.90
15184;DHT22;7693;49.266;7.104;2023-09-07T19:36:32;22.40;98.40
15184;DHT22;7693;49.266;7.104;2023-09-07T19:38:58;22.30;98.10
15184;DHT22;7693;49.266;7.104;2023-09-07T19:41:25;22.30;98.30
15184;DHT22;7693;49.266;7.104;2023-09-07T19:43:53;22.20;98.40
15184;DHT22;7693;49.266;7.104;2023-09-07T19:46:19;22.20;98.60
15184;DHT22;7693;49.266;7.104;2023-09-07T19:48:46;22.10;98.70
15184;DHT22;7693;49.266;7.104;2023-09-07T19:51:15;22.10;98.90
15184;DHT22;7693;49.266;7.104;2023-09-07T19:53:41;22.00;99.00
15184;DHT22;7693;49.266;7.104;2023-09-07T19:56:08;22.00;99.10
15184;DHT22;7693;49.266;7.104;2023-09-07T19:58:35;21.90;99.20
15184;DHT22;7693;49.266;7.104;2023-09-07T20:01:01;21.80;99.30
15184;DHT22;7693;49.266;7.104;2023-09-07T20:03:27;21.80;99.40
15184;DHT22;7693;49.266;7.104;2023-09-07T20:05:53;21.70;99.50
15184;DHT22;7693;49.266;7.104;2023-09-07T20:08:18;21.70;99.60
15184;DHT22;7693;49.266;7.104;2023-09-07T20:10:44;21.60;99.70
15184;DHT22;7693;49.266;7.104;2023-09-07T20:13:10;21.60;99.80
15184;DHT22;7693;49.266;7.104;2023-09-07T20:15:39;21.50;99.90
15184;DHT22;7693;49.266;7.104;2023-09-07T20:18:05;21.50;99.90
15184;DHT22;7693;49.266;7.104;2023-09-07T20:20:33;21.50;99.90
15184;DHT22;7693;49.266;7.104;2023-09-07T20:22:59;21.40;99.90
15184;DHT22;7693;49.266;7.104;2023-09-07T20:25:28;21.40;99.90
15184;DHT22;7693;49.266;7.104;2023-09-07T20:27:53;21.40;99.90
15184;DHT22;7693;49.266;7.104;2023-09-07T20:30:19;21.30;99.90
15184;DHT22;7693;49.266;7.104;2023-09-07T20:32:45;21.30;99.90
15184;DHT22;7693;49.266;7.104;2023-09-07T20:35:10;21.30;99.90
15184;DHT22;7693;49.266;7.104;2023-09-07T20:37:36;21.20;99.90
15184;DHT22;7693;49.266;7.104;2023-09-07T20:40:03;21.20;99.90
15184;DHT22;7693;49.266;7.104;2023-09-07T20:42:31;21.10;99.90
15184;DHT22;7693;49.266;7.104;2023-09-07T20:44:57;21.10;99.90
15184;DHT22;7693;49.266;7.104;2023-09-07T20:47:23;21.00;99.90
15184;DHT22;7693;49.266;7.104;2023-09-07T20:49:48;21.00;99.90
15184;DHT22;7693;49.266;7.104;2023-09-07T20:52:14;20.90;99.90
15184;DHT22;7693;49.266;7.104;2023-09-07T20:54:40;20.90;99.90
15184;DHT22;7693;49.266;7.104;2023-09-07T20:57:07;20.80;99.90
15184;DHT22;7693;49.266;7.104;2023-09-07T20:59:33;20.80;99.90
15184;DHT22;7693;49.266;7.104;2023-09-07T21:01:59;20.70;99.90
15184;DHT22;7693;49.266;7.104;2023-09-07T21:04:24;20.70;99.90
15184;DHT22;7693;49.266;7.104;2023-09-07T21:06:50;20.70;99.90
15184;DHT22;7693;49.266;7.104;2023-09-07T21:09:16;20.60;99.90
15184;DHT22;7693;49.266;7.104;2023-09-07T21:11:45;20.60;99.90
15184;DHT22;7693;49.266;7.104;2023-09-07T21:14:11;20.60;99.90
15184;DHT22;7693;49.266;7.104;2023-09-07T21:16:36;20.50;99.90
15184;DHT22;7693;49.266;7.104;2023-09-07T21:19:06;20.50;99.90
15184;DHT22;7693;49.266;7.104;2023-09-07T21:21:31;20.50;99.90
15184;DHT22;7693;49.266;7.104;2023-09-07T21:23:57;20.40;99.90
15184;DHT22;7693;49.266;7.104;2023-09-07T21:26:23;20.40;99.90
15184;DHT22;7693;49.266;7.104;2023-09-07T21:28:49;20.40;99.90
15184;DHT22;7693;49.266;7.104;2023-09-07T21:31:14;20.40;99.90
15184;DHT22;7693;49.266;7.104;2023-09-07T21:33:40;20.30;99.90
15184;DHT22;7693;49.266;7.104;2023-09-07T21:36:06;20.30;99.90
15184;DHT22;7693;49.266;7.104;2023-09-07T21:38:33;20.30;99.90
15184;DHT22;7693;49.266;7.104;2023-09-07T21:40:58;20.30;99.90
15184;DHT22;7693;49.266;7.104;2023-09-07T21:43:24;20.20;99.90
15184;DHT22;7693;49.266;7.104;2023-09-07T21:45:50;20.20;99.90
15184;DHT22;7693;49.266;7.104;2023-09-07T21:48:16;20.20;99.90
15184;DHT22;7693;49.266;7.104;2023-09-07T21:50:42;20.10;99.90
15184;DHT22;7693;49.266;7.104;2023-09-07T21:53:08;20.10;99.90
15184;DHT22;7693;49.266;7.104;2023-09-07T21:55:34;20.10;99.90
15184;DHT22;7693;49.266;7.104;2023-09-07T21:57:59;20.00;99.90
15184;DHT22;7693;49.266;7.104;2023-09-07T22:00:25;20.00;99.90
15184;DHT22;7693;49.266;7.104;2023-09-07T22:02:51;20.00;99.90
15184;DHT22;7693;49.266;7.104;2023-09-07T22:05:17;19.90;99.90
15184;DHT22;7693;49.266;7.104;2023-09-07T22:07:43;19.90;99.90
15184;DHT22;7693;49.266;7.104;2023-09-07T22:10:09;19.90;99.90
15184;DHT22;7693;49.266;7.104;2023-09-07T22:12:36;19.80;99.90
15184;DHT22;7693;49.266;7.104;2023-09-07T22:15:03;19.80;99.90
15184;DHT22;7693;49.266;7.104;2023-09-07T22:17:29;19.80;99.90
